Aérodrome :
LOGIN :

S'inscrire | Disclaimer

   EN    FR    IT 

 










Légende :    VFR   VFR Marginal   IFR   IFR Intensif   IFR Très Intensif
Visi : 
Plafond : 
>= 8 km
>= 3000ft
5 à 8 km
1000 à 3000 ft
1500m à 5 km
500 à 1000 ft
800 à 1500m
200 à 500 ft
< 800m
< 200 ft
Symboles :   Orages  Brouillard  Fortes neiges  Fortes précipitations  Vent > 20 kt
SIGMETs :   Divers  Orages  Givrage  Turbulence  Onde Orograph.  Cendres Volcan.







- Altitude de l'aérodrome : 82 ft
- Code IATA : ALG


DAAG - Alger Houari Boumedienne

DERNIER METAR :
  • 230630Z 27002KT 9999 SCT020 02/01 Q1028

METARs EXPIRÉS :
  • 230600Z 28004KT 9999 SCT020 02/01 Q1028
  • 230530Z 29002KT 9999 FEW020 02/01 Q1028
  • 230500Z 28003KT 9999 FEW020 03/02 Q1028
  • 230430Z 30004KT 9999 FEW020 03/02 Q1028
  • 230400Z VRB02KT 9999 FEW020 04/03 Q1028

TAF TAF DAAG
Valide du 23 à 06h jusqu'au 24 à 06h UTC


230500Z 2306/2406 VRB02KT 9999 FEW020
PROB30
TEMPO 2306/2308 5000 BR
BECMG 2309/2312 34010KT
BECMG 2319/2321 VRB02KT
PROB40 2321/2406 3000 BR BKN015
PROB30
TEMPO 2400/2406 0600 FG
Pas de NOTAMs connus pour ce terrain.



MET'MAP, la Météo Aéronautique d'un coup d'oeil ! - Copyright ORBIFLY Décembre 2007 - Disclaimer

ORBIFLY MET'MAP TEAM :

Programmation & Développement : Alexandra Zaïnal
Conception & Développement : Baudouin d'Aumeries
Co-Programmation & Développement : Marc-Olivier Méhu
Soutien technique & logistique : Manuel Goepfert

Contact : metmap@orbifly.com




SOURCES & CREDITS :

   NOAA